Terminal Aerodrome Forecast
Issued by NWS

Home | Current Version | Previous Version | Text Only | Print | Product List | Glossary On
Versions: 1 2 3 4 5 6 7 8 9 10 11 12 13 14 15
000
FTUS42 KMLB 220529
TAFSFB
TAF
KSFB 220529Z 2206/2306 09009KT P6SM VCSH SCT025 BKN035
      TEMPO 2209/2212 BKN015
     FM221400 10014G20KT P6SM VCSH SCT020 BKN035
     FM221900 10017G22KT P6SM VCTS SCT025CB BKN040
     FM230000 11009KT P6SM VCSH BKN020=

USA.gov is the U.S. government's official web portal to all federal, state and local government web resources and services.